sensor_id;sensor_type;location;lat;lon;timestamp;P1;durP1;ratioP1;P2;durP2;ratioP2
50880;SDS011;36858;47.832;-3.800;2023-08-20T00:01:06;1.57;;;0.90;;
50880;SDS011;36858;47.832;-3.800;2023-08-20T00:03:36;2.53;;;0.90;;
50880;SDS011;36858;47.832;-3.800;2023-08-20T00:06:03;1.47;;;0.80;;
50880;SDS011;36858;47.832;-3.800;2023-08-20T00:08:30;3.83;;;0.90;;
50880;SDS011;36858;47.832;-3.800;2023-08-20T00:10:57;1.60;;;0.80;;
50880;SDS011;36858;47.832;-3.800;2023-08-20T00:13:24;5.13;;;1.00;;
50880;SDS011;36858;47.832;-3.800;2023-08-20T00:15:51;3.20;;;0.70;;
50880;SDS011;36858;47.832;-3.800;2023-08-20T00:18:18;3.00;;;0.70;;
50880;SDS011;36858;47.832;-3.800;2023-08-20T00:20:45;2.23;;;0.67;;
50880;SDS011;36858;47.832;-3.800;2023-08-20T00:23:12;2.07;;;0.93;;
50880;SDS011;36858;47.832;-3.800;2023-08-20T00:25:39;3.23;;;1.10;;
50880;SDS011;36858;47.832;-3.800;2023-08-20T00:28:07;2.27;;;0.80;;
50880;SDS011;36858;47.832;-3.800;2023-08-20T00:30:34;4.20;;;0.90;;
50880;SDS011;36858;47.832;-3.800;2023-08-20T00:33:01;1.90;;;1.00;;
50880;SDS011;36858;47.832;-3.800;2023-08-20T00:35:28;3.03;;;0.93;;
50880;SDS011;36858;47.832;-3.800;2023-08-20T00:37:55;2.30;;;1.00;;
50880;SDS011;36858;47.832;-3.800;2023-08-20T00:40:22;3.27;;;1.10;;
50880;SDS011;36858;47.832;-3.800;2023-08-20T00:42:49;5.27;;;1.30;;
50880;SDS011;36858;47.832;-3.800;2023-08-20T00:45:16;2.97;;;1.10;;
50880;SDS011;36858;47.832;-3.800;2023-08-20T00:47:43;2.80;;;1.20;;
50880;SDS011;36858;47.832;-3.800;2023-08-20T00:50:10;4.10;;;1.00;;
50880;SDS011;36858;47.832;-3.800;2023-08-20T00:52:38;2.37;;;1.20;;
50880;SDS011;36858;47.832;-3.800;2023-08-20T00:55:08;1.40;;;0.90;;
50880;SDS011;36858;47.832;-3.800;2023-08-20T00:57:37;2.53;;;1.27;;
50880;SDS011;36858;47.832;-3.800;2023-08-20T01:00:05;4.00;;;1.17;;
50880;SDS011;36858;47.832;-3.800;2023-08-20T01:02:36;4.43;;;1.40;;
50880;SDS011;36858;47.832;-3.800;2023-08-20T01:05:04;4.13;;;1.03;;
50880;SDS011;36858;47.832;-3.800;2023-08-20T01:10:06;5.43;;;1.63;;
50880;SDS011;36858;47.832;-3.800;2023-08-20T01:12:37;5.10;;;1.40;;
50880;SDS011;36858;47.832;-3.800;2023-08-20T01:15:05;5.07;;;1.40;;
50880;SDS011;36858;47.832;-3.800;2023-08-20T01:17:35;4.70;;;1.73;;
50880;SDS011;36858;47.832;-3.800;2023-08-20T01:20:02;5.63;;;1.83;;
50880;SDS011;36858;47.832;-3.800;2023-08-20T01:22:36;4.47;;;1.80;;
50880;SDS011;36858;47.832;-3.800;2023-08-20T01:28:22;6.07;;;2.23;;
50880;SDS011;36858;47.832;-3.800;2023-08-20T01:30:53;6.07;;;2.00;;
50880;SDS011;36858;47.832;-3.800;2023-08-20T01:33:21;8.23;;;2.13;;
50880;SDS011;36858;47.832;-3.800;2023-08-20T01:35:48;6.13;;;2.00;;
50880;SDS011;36858;47.832;-3.800;2023-08-20T01:38:14;3.47;;;1.70;;
50880;SDS011;36858;47.832;-3.800;2023-08-20T01:40:41;4.00;;;1.47;;
50880;SDS011;36858;47.832;-3.800;2023-08-20T01:43:08;3.37;;;1.80;;
50880;SDS011;36858;47.832;-3.800;2023-08-20T01:45:36;6.27;;;1.73;;
50880;SDS011;36858;47.832;-3.800;2023-08-20T01:48:03;7.27;;;1.43;;
50880;SDS011;36858;47.832;-3.800;2023-08-20T01:50:30;6.37;;;2.07;;
50880;SDS011;36858;47.832;-3.800;2023-08-20T01:52:58;4.57;;;1.50;;
50880;SDS011;36858;47.832;-3.800;2023-08-20T01:55:25;3.63;;;1.37;;
50880;SDS011;36858;47.832;-3.800;2023-08-20T01:57:53;2.90;;;1.20;;
50880;SDS011;36858;47.832;-3.800;2023-08-20T02:00:20;3.80;;;1.47;;
50880;SDS011;36858;47.832;-3.800;2023-08-20T02:02:47;2.67;;;1.23;;
50880;SDS011;36858;47.832;-3.800;2023-08-20T02:05:14;4.20;;;1.33;;
50880;SDS011;36858;47.832;-3.800;2023-08-20T02:07:41;3.43;;;1.47;;
50880;SDS011;36858;47.832;-3.800;2023-08-20T02:10:08;1.73;;;1.30;;
50880;SDS011;36858;47.832;-3.800;2023-08-20T02:12:35;2.37;;;1.30;;
50880;SDS011;36858;47.832;-3.800;2023-08-20T02:15:02;1.10;;;0.90;;
50880;SDS011;36858;47.832;-3.800;2023-08-20T02:17:30;2.60;;;1.20;;
50880;SDS011;36858;47.832;-3.800;2023-08-20T02:19:57;2.63;;;0.90;;
50880;SDS011;36858;47.832;-3.800;2023-08-20T02:22:24;2.00;;;0.93;;
50880;SDS011;36858;47.832;-3.800;2023-08-20T02:24:51;4.40;;;1.00;;
50880;SDS011;36858;47.832;-3.800;2023-08-20T02:27:17;0.83;;;0.80;;
50880;SDS011;36858;47.832;-3.800;2023-08-20T02:29:44;2.50;;;1.00;;
50880;SDS011;36858;47.832;-3.800;2023-08-20T02:32:12;1.20;;;1.00;;
50880;SDS011;36858;47.832;-3.800;2023-08-20T02:34:39;3.90;;;0.90;;
50880;SDS011;36858;47.832;-3.800;2023-08-20T02:37:05;2.53;;;0.90;;
50880;SDS011;36858;47.832;-3.800;2023-08-20T02:39:33;1.70;;;0.60;;
50880;SDS011;36858;47.832;-3.800;2023-08-20T02:42:00;3.17;;;0.83;;
50880;SDS011;36858;47.832;-3.800;2023-08-20T02:44:27;3.23;;;1.10;;
50880;SDS011;36858;47.832;-3.800;2023-08-20T02:46:54;2.30;;;0.97;;
50880;SDS011;36858;47.832;-3.800;2023-08-20T02:49:21;0.93;;;0.70;;
50880;SDS011;36858;47.832;-3.800;2023-08-20T02:51:47;1.40;;;0.80;;
50880;SDS011;36858;47.832;-3.800;2023-08-20T02:54:14;2.83;;;0.80;;
50880;SDS011;36858;47.832;-3.800;2023-08-20T02:56:41;4.07;;;0.90;;
50880;SDS011;36858;47.832;-3.800;2023-08-20T02:59:08;2.63;;;1.63;;
50880;SDS011;36858;47.832;-3.800;2023-08-20T03:01:35;1.07;;;0.53;;
50880;SDS011;36858;47.832;-3.800;2023-08-20T03:04:02;1.10;;;0.73;;
50880;SDS011;36858;47.832;-3.800;2023-08-20T03:06:29;4.40;;;0.80;;
50880;SDS011;36858;47.832;-3.800;2023-08-20T03:08:56;2.30;;;0.93;;
50880;SDS011;36858;47.832;-3.800;2023-08-20T03:11:23;1.77;;;0.70;;
50880;SDS011;36858;47.832;-3.800;2023-08-20T03:13:50;1.77;;;0.70;;
50880;SDS011;36858;47.832;-3.800;2023-08-20T03:16:17;2.63;;;0.63;;
50880;SDS011;36858;47.832;-3.800;2023-08-20T03:18:44;1.47;;;0.70;;
50880;SDS011;36858;47.832;-3.800;2023-08-20T03:21:11;1.20;;;0.50;;
50880;SDS011;36858;47.832;-3.800;2023-08-20T03:23:37;3.07;;;0.80;;
50880;SDS011;36858;47.832;-3.800;2023-08-20T03:26:04;2.10;;;0.70;;
50880;SDS011;36858;47.832;-3.800;2023-08-20T03:28:31;1.37;;;0.63;;
50880;SDS011;36858;47.832;-3.800;2023-08-20T03:30:59;2.10;;;0.80;;
50880;SDS011;36858;47.832;-3.800;2023-08-20T03:33:27;2.47;;;0.83;;
50880;SDS011;36858;47.832;-3.800;2023-08-20T03:35:54;1.63;;;0.60;;
50880;SDS011;36858;47.832;-3.800;2023-08-20T03:38:25;2.80;;;0.73;;
50880;SDS011;36858;47.832;-3.800;2023-08-20T03:40:52;2.77;;;0.93;;
50880;SDS011;36858;47.832;-3.800;2023-08-20T03:43:19;0.80;;;0.70;;
50880;SDS011;36858;47.832;-3.800;2023-08-20T03:45:49;4.83;;;2.17;;
50880;SDS011;36858;47.832;-3.800;2023-08-20T03:48:17;2.40;;;0.70;;
50880;SDS011;36858;47.832;-3.800;2023-08-20T03:50:44;2.30;;;0.80;;
50880;SDS011;36858;47.832;-3.800;2023-08-20T03:53:10;3.33;;;1.00;;
50880;SDS011;36858;47.832;-3.800;2023-08-20T03:55:37;3.37;;;1.20;;
50880;SDS011;36858;47.832;-3.800;2023-08-20T03:58:04;2.87;;;1.03;;
50880;SDS011;36858;47.832;-3.800;2023-08-20T04:00:31;4.03;;;1.57;;
50880;SDS011;36858;47.832;-3.800;2023-08-20T04:02:58;6.33;;;1.53;;
50880;SDS011;36858;47.832;-3.800;2023-08-20T04:05:25;4.93;;;1.80;;
50880;SDS011;36858;47.832;-3.800;2023-08-20T04:07:52;6.90;;;2.07;;
50880;SDS011;36858;47.832;-3.800;2023-08-20T04:10:19;4.47;;;1.40;;
50880;SDS011;36858;47.832;-3.800;2023-08-20T04:12:46;6.83;;;1.87;;
50880;SDS011;36858;47.832;-3.800;2023-08-20T04:15:12;5.70;;;1.73;;
50880;SDS011;36858;47.832;-3.800;2023-08-20T04:17:39;5.53;;;1.70;;
50880;SDS011;36858;47.832;-3.800;2023-08-20T04:20:07;5.67;;;1.60;;
50880;SDS011;36858;47.832;-3.800;2023-08-20T04:22:36;7.17;;;1.73;;
50880;SDS011;36858;47.832;-3.800;2023-08-20T04:25:04;8.17;;;2.43;;
50880;SDS011;36858;47.832;-3.800;2023-08-20T04:27:32;5.17;;;1.97;;
50880;SDS011;36858;47.832;-3.800;2023-08-20T04:30:00;8.63;;;2.20;;
50880;SDS011;36858;47.832;-3.800;2023-08-20T04:32:27;3.83;;;2.07;;
50880;SDS011;36858;47.832;-3.800;2023-08-20T04:34:54;4.43;;;1.67;;
50880;SDS011;36858;47.832;-3.800;2023-08-20T04:37:21;3.50;;;1.97;;
50880;SDS011;36858;47.832;-3.800;2023-08-20T04:39:48;4.10;;;2.33;;
50880;SDS011;36858;47.832;-3.800;2023-08-20T04:42:15;3.90;;;1.77;;
50880;SDS011;36858;47.832;-3.800;2023-08-20T04:44:42;5.07;;;2.40;;
50880;SDS011;36858;47.832;-3.800;2023-08-20T04:47:12;3.90;;;1.77;;
50880;SDS011;36858;47.832;-3.800;2023-08-20T04:49:39;4.90;;;1.50;;
50880;SDS011;36858;47.832;-3.800;2023-08-20T04:52:06;4.80;;;2.67;;
50880;SDS011;36858;47.832;-3.800;2023-08-20T04:54:33;3.47;;;1.73;;
50880;SDS011;36858;47.832;-3.800;2023-08-20T04:57:00;3.37;;;2.00;;
50880;SDS011;36858;47.832;-3.800;2023-08-20T04:59:27;2.93;;;1.60;;
50880;SDS011;36858;47.832;-3.800;2023-08-20T05:01:54;4.23;;;1.73;;
50880;SDS011;36858;47.832;-3.800;2023-08-20T05:04:22;2.40;;;1.63;;
50880;SDS011;36858;47.832;-3.800;2023-08-20T05:06:49;5.80;;;2.00;;
50880;SDS011;36858;47.832;-3.800;2023-08-20T05:09:15;3.17;;;1.73;;
50880;SDS011;36858;47.832;-3.800;2023-08-20T05:11:42;4.40;;;1.77;;
50880;SDS011;36858;47.832;-3.800;2023-08-20T05:14:09;3.03;;;1.60;;
50880;SDS011;36858;47.832;-3.800;2023-08-20T05:16:36;2.00;;;1.60;;
50880;SDS011;36858;47.832;-3.800;2023-08-20T05:19:03;4.33;;;1.90;;
50880;SDS011;36858;47.832;-3.800;2023-08-20T05:21:30;1.70;;;1.50;;
50880;SDS011;36858;47.832;-3.800;2023-08-20T05:23:57;5.30;;;2.23;;
50880;SDS011;36858;47.832;-3.800;2023-08-20T05:26:24;2.00;;;1.47;;
50880;SDS011;36858;47.832;-3.800;2023-08-20T05:28:51;5.67;;;1.70;;
50880;SDS011;36858;47.832;-3.800;2023-08-20T05:31:18;3.37;;;2.17;;
50880;SDS011;36858;47.832;-3.800;2023-08-20T05:33:45;2.17;;;1.57;;
50880;SDS011;36858;47.832;-3.800;2023-08-20T05:36:12;2.90;;;1.50;;
50880;SDS011;36858;47.832;-3.800;2023-08-20T05:38:39;4.33;;;1.67;;
50880;SDS011;36858;47.832;-3.800;2023-08-20T05:41:06;2.07;;;1.30;;
50880;SDS011;36858;47.832;-3.800;2023-08-20T05:43:32;1.33;;;1.17;;
50880;SDS011;36858;47.832;-3.800;2023-08-20T05:45:59;4.80;;;1.90;;
50880;SDS011;36858;47.832;-3.800;2023-08-20T05:48:26;2.77;;;1.80;;
50880;SDS011;36858;47.832;-3.800;2023-08-20T05:50:53;3.67;;;1.80;;
50880;SDS011;36858;47.832;-3.800;2023-08-20T05:53:21;3.50;;;2.20;;
50880;SDS011;36858;47.832;-3.800;2023-08-20T05:55:48;3.90;;;2.03;;
50880;SDS011;36858;47.832;-3.800;2023-08-20T05:58:16;2.80;;;2.40;;
50880;SDS011;36858;47.832;-3.800;2023-08-20T06:00:42;2.20;;;1.80;;
50880;SDS011;36858;47.832;-3.800;2023-08-20T06:03:09;1.87;;;1.67;;
50880;SDS011;36858;47.832;-3.800;2023-08-20T06:05:36;1.87;;;1.70;;
50880;SDS011;36858;47.832;-3.800;2023-08-20T06:08:03;2.20;;;1.80;;
50880;SDS011;36858;47.832;-3.800;2023-08-20T06:10:30;3.00;;;1.97;;
50880;SDS011;36858;47.832;-3.800;2023-08-20T06:12:57;2.23;;;1.60;;
50880;SDS011;36858;47.832;-3.800;2023-08-20T06:15:24;3.87;;;1.77;;
50880;SDS011;36858;47.832;-3.800;2023-08-20T06:17:52;4.17;;;1.80;;
50880;SDS011;36858;47.832;-3.800;2023-08-20T06:20:19;1.40;;;1.30;;
50880;SDS011;36858;47.832;-3.800;2023-08-20T06:22:46;3.63;;;1.37;;
50880;SDS011;36858;47.832;-3.800;2023-08-20T06:25:13;1.50;;;1.40;;
50880;SDS011;36858;47.832;-3.800;2023-08-20T06:27:41;1.43;;;1.33;;
50880;SDS011;36858;47.832;-3.800;2023-08-20T06:30:08;6.73;;;2.10;;
50880;SDS011;36858;47.832;-3.800;2023-08-20T06:32:35;1.97;;;1.60;;
50880;SDS011;36858;47.832;-3.800;2023-08-20T06:35:02;2.73;;;1.73;;
50880;SDS011;36858;47.832;-3.800;2023-08-20T06:37:30;2.63;;;1.53;;
50880;SDS011;36858;47.832;-3.800;2023-08-20T06:39:57;3.10;;;2.00;;
50880;SDS011;36858;47.832;-3.800;2023-08-20T06:42:24;2.07;;;1.53;;
50880;SDS011;36858;47.832;-3.800;2023-08-20T06:44:51;3.30;;;1.77;;
50880;SDS011;36858;47.832;-3.800;2023-08-20T06:47:18;2.63;;;1.80;;
50880;SDS011;36858;47.832;-3.800;2023-08-20T06:49:45;1.87;;;1.60;;
50880;SDS011;36858;47.832;-3.800;2023-08-20T06:52:12;5.57;;;2.40;;
50880;SDS011;36858;47.832;-3.800;2023-08-20T06:54:39;3.17;;;2.07;;
50880;SDS011;36858;47.832;-3.800;2023-08-20T06:57:06;3.97;;;1.73;;
50880;SDS011;36858;47.832;-3.800;2023-08-20T06:59:33;3.03;;;2.00;;
50880;SDS011;36858;47.832;-3.800;2023-08-20T07:02:02;4.43;;;2.23;;
50880;SDS011;36858;47.832;-3.800;2023-08-20T07:04:30;1.90;;;1.70;;
50880;SDS011;36858;47.832;-3.800;2023-08-20T07:06:57;3.20;;;1.70;;
50880;SDS011;36858;47.832;-3.800;2023-08-20T07:09:25;2.33;;;1.60;;
50880;SDS011;36858;47.832;-3.800;2023-08-20T07:11:52;2.07;;;1.70;;
50880;SDS011;36858;47.832;-3.800;2023-08-20T07:14:19;2.30;;;1.70;;
50880;SDS011;36858;47.832;-3.800;2023-08-20T07:16:46;1.83;;;1.73;;
50880;SDS011;36858;47.832;-3.800;2023-08-20T07:19:12;3.83;;;1.70;;
50880;SDS011;36858;47.832;-3.800;2023-08-20T07:21:40;1.60;;;1.50;;
50880;SDS011;36858;47.832;-3.800;2023-08-20T07:24:07;1.73;;;1.63;;
50880;SDS011;36858;47.832;-3.800;2023-08-20T07:26:34;1.60;;;1.50;;
50880;SDS011;36858;47.832;-3.800;2023-08-20T07:29:01;6.17;;;3.03;;
50880;SDS011;36858;47.832;-3.800;2023-08-20T07:31:29;4.23;;;3.07;;
50880;SDS011;36858;47.832;-3.800;2023-08-20T07:33:58;2.97;;;2.37;;
50880;SDS011;36858;47.832;-3.800;2023-08-20T07:36:29;3.70;;;2.43;;
50880;SDS011;36858;47.832;-3.800;2023-08-20T07:38:56;4.33;;;3.60;;
50880;SDS011;36858;47.832;-3.800;2023-08-20T07:41:23;3.40;;;2.53;;
50880;SDS011;36858;47.832;-3.800;2023-08-20T07:43:50;4.73;;;2.33;;
50880;SDS011;36858;47.832;-3.800;2023-08-20T07:46:17;4.43;;;2.07;;
50880;SDS011;36858;47.832;-3.800;2023-08-20T07:48:44;3.33;;;2.30;;
50880;SDS011;36858;47.832;-3.800;2023-08-20T07:51:11;2.17;;;1.73;;
50880;SDS011;36858;47.832;-3.800;2023-08-20T07:53:38;3.73;;;1.90;;
50880;SDS011;36858;47.832;-3.800;2023-08-20T07:56:05;3.90;;;2.17;;
50880;SDS011;36858;47.832;-3.800;2023-08-20T07:58:33;3.87;;;2.17;;
50880;SDS011;36858;47.832;-3.800;2023-08-20T08:01:00;4.73;;;2.63;;
50880;SDS011;36858;47.832;-3.800;2023-08-20T08:03:27;4.70;;;2.00;;
50880;SDS011;36858;47.832;-3.800;2023-08-20T08:05:54;3.60;;;2.10;;
50880;SDS011;36858;47.832;-3.800;2023-08-20T08:08:22;2.53;;;1.97;;
50880;SDS011;36858;47.832;-3.800;2023-08-20T08:10:49;3.03;;;1.63;;
50880;SDS011;36858;47.832;-3.800;2023-08-20T08:13:17;3.27;;;2.20;;
50880;SDS011;36858;47.832;-3.800;2023-08-20T08:15:46;10.80;;;1.97;;
50880;SDS011;36858;47.832;-3.800;2023-08-20T08:18:13;2.07;;;1.43;;
50880;SDS011;36858;47.832;-3.800;2023-08-20T08:20:41;3.17;;;1.60;;
50880;SDS011;36858;47.832;-3.800;2023-08-20T08:23:08;5.37;;;1.60;;
50880;SDS011;36858;47.832;-3.800;2023-08-20T08:25:35;5.17;;;1.83;;
50880;SDS011;36858;47.832;-3.800;2023-08-20T08:28:04;5.87;;;1.50;;
50880;SDS011;36858;47.832;-3.800;2023-08-20T08:30:31;5.53;;;1.73;;
50880;SDS011;36858;47.832;-3.800;2023-08-20T08:32:59;4.13;;;1.80;;
50880;SDS011;36858;47.832;-3.800;2023-08-20T08:35:26;2.97;;;1.50;;
50880;SDS011;36858;47.832;-3.800;2023-08-20T08:37:52;6.53;;;2.20;;
50880;SDS011;36858;47.832;-3.800;2023-08-20T08:40:20;5.23;;;1.53;;
50880;SDS011;36858;47.832;-3.800;2023-08-20T08:42:48;5.60;;;1.77;;
50880;SDS011;36858;47.832;-3.800;2023-08-20T08:45:18;3.70;;;1.90;;
50880;SDS011;36858;47.832;-3.800;2023-08-20T08:47:48;6.40;;;1.63;;
50880;SDS011;36858;47.832;-3.800;2023-08-20T08:50:16;5.83;;;1.57;;
50880;SDS011;36858;47.832;-3.800;2023-08-20T08:52:43;4.80;;;1.70;;
50880;SDS011;36858;47.832;-3.800;2023-08-20T08:55:11;8.47;;;1.70;;
50880;SDS011;36858;47.832;-3.800;2023-08-20T08:57:38;6.70;;;1.90;;
50880;SDS011;36858;47.832;-3.800;2023-08-20T09:00:06;6.13;;;1.90;;
50880;SDS011;36858;47.832;-3.800;2023-08-20T09:02:33;3.20;;;1.40;;
50880;SDS011;36858;47.832;-3.800;2023-08-20T09:05:00;9.77;;;2.00;;
50880;SDS011;36858;47.832;-3.800;2023-08-20T09:07:27;5.47;;;1.77;;
50880;SDS011;36858;47.832;-3.800;2023-08-20T09:09:57;2.73;;;1.50;;
50880;SDS011;36858;47.832;-3.800;2023-08-20T09:12:26;3.90;;;1.60;;
50880;SDS011;36858;47.832;-3.800;2023-08-20T09:14:54;3.83;;;1.70;;
50880;SDS011;36858;47.832;-3.800;2023-08-20T09:17:27;6.00;;;1.60;;
50880;SDS011;36858;47.832;-3.800;2023-08-20T09:19:55;4.37;;;1.40;;
50880;SDS011;36858;47.832;-3.800;2023-08-20T09:22:23;3.97;;;1.43;;
50880;SDS011;36858;47.832;-3.800;2023-08-20T09:24:54;7.03;;;1.60;;
50880;SDS011;36858;47.832;-3.800;2023-08-20T09:27:22;6.53;;;1.80;;
50880;SDS011;36858;47.832;-3.800;2023-08-20T09:29:51;3.37;;;1.40;;
50880;SDS011;36858;47.832;-3.800;2023-08-20T09:32:21;2.63;;;1.57;;
50880;SDS011;36858;47.832;-3.800;2023-08-20T09:34:49;3.27;;;1.30;;
50880;SDS011;36858;47.832;-3.800;2023-08-20T09:37:17;4.57;;;1.57;;
50880;SDS011;36858;47.832;-3.800;2023-08-20T09:39:45;2.60;;;1.37;;
50880;SDS011;36858;47.832;-3.800;2023-08-20T09:42:13;2.80;;;1.27;;
50880;SDS011;36858;47.832;-3.800;2023-08-20T09:44:44;8.77;;;2.10;;
50880;SDS011;36858;47.832;-3.800;2023-08-20T09:47:16;4.90;;;1.97;;
50880;SDS011;36858;47.832;-3.800;2023-08-20T09:49:45;15.00;;;3.87;;
50880;SDS011;36858;47.832;-3.800;2023-08-20T09:52:48;8.83;;;2.97;;
50880;SDS011;36858;47.832;-3.800;2023-08-20T09:55:13;14.67;;;3.90;;
50880;SDS011;36858;47.832;-3.800;2023-08-20T09:57:44;12.40;;;3.83;;
50880;SDS011;36858;47.832;-3.800;2023-08-20T10:00:12;12.37;;;3.77;;
50880;SDS011;36858;47.832;-3.800;2023-08-20T10:02:43;12.53;;;4.57;;
50880;SDS011;36858;47.832;-3.800;2023-08-20T10:05:11;11.57;;;4.03;;
50880;SDS011;36858;47.832;-3.800;2023-08-20T10:07:39;11.57;;;3.73;;
50880;SDS011;36858;47.832;-3.800;2023-08-20T10:10:07;11.83;;;3.50;;
50880;SDS011;36858;47.832;-3.800;2023-08-20T10:12:35;9.87;;;2.60;;
50880;SDS011;36858;47.832;-3.800;2023-08-20T10:15:03;7.07;;;2.00;;
50880;SDS011;36858;47.832;-3.800;2023-08-20T10:17:32;4.10;;;1.73;;
50880;SDS011;36858;47.832;-3.800;2023-08-20T10:20:01;8.67;;;2.77;;
50880;SDS011;36858;47.832;-3.800;2023-08-20T10:22:35;3.03;;;1.60;;
50880;SDS011;36858;47.832;-3.800;2023-08-20T10:25:07;5.40;;;1.77;;
50880;SDS011;36858;47.832;-3.800;2023-08-20T10:27:36;5.57;;;1.60;;
50880;SDS011;36858;47.832;-3.800;2023-08-20T10:30:08;4.93;;;1.33;;
50880;SDS011;36858;47.832;-3.800;2023-08-20T10:32:43;7.13;;;1.50;;
50880;SDS011;36858;47.832;-3.800;2023-08-20T10:35:13;7.03;;;1.47;;
50880;SDS011;36858;47.832;-3.800;2023-08-20T10:38:01;6.83;;;1.63;;
50880;SDS011;36858;47.832;-3.800;2023-08-20T10:43:28;8.67;;;1.97;;
50880;SDS011;36858;47.832;-3.800;2023-08-20T10:48:40;6.50;;;1.50;;
50880;SDS011;36858;47.832;-3.800;2023-08-20T10:53:42;6.70;;;1.67;;
50880;SDS011;36858;47.832;-3.800;2023-08-20T10:56:14;8.20;;;1.53;;
50880;SDS011;36858;47.832;-3.800;2023-08-20T10:58:42;6.83;;;1.53;;
50880;SDS011;36858;47.832;-3.800;2023-08-20T11:01:22;7.67;;;1.63;;
50880;SDS011;36858;47.832;-3.800;2023-08-20T11:03:50;3.57;;;1.40;;
50880;SDS011;36858;47.832;-3.800;2023-08-20T11:06:17;10.33;;;1.87;;
50880;SDS011;36858;47.832;-3.800;2023-08-20T11:08:45;8.33;;;2.23;;
50880;SDS011;36858;47.832;-3.800;2023-08-20T11:11:12;7.80;;;2.13;;
50880;SDS011;36858;47.832;-3.800;2023-08-20T11:13:39;7.90;;;2.13;;
50880;SDS011;36858;47.832;-3.800;2023-08-20T11:16:06;4.13;;;1.60;;
50880;SDS011;36858;47.832;-3.800;2023-08-20T11:18:34;5.87;;;1.57;;
50880;SDS011;36858;47.832;-3.800;2023-08-20T11:21:01;7.03;;;2.27;;
50880;SDS011;36858;47.832;-3.800;2023-08-20T11:23:28;3.37;;;0.93;;
50880;SDS011;36858;47.832;-3.800;2023-08-20T11:25:56;5.43;;;1.60;;
50880;SDS011;36858;47.832;-3.800;2023-08-20T11:28:24;2.70;;;1.10;;
50880;SDS011;36858;47.832;-3.800;2023-08-20T11:30:52;4.67;;;1.63;;
50880;SDS011;36858;47.832;-3.800;2023-08-20T11:33:21;8.77;;;1.50;;
50880;SDS011;36858;47.832;-3.800;2023-08-20T11:35:48;5.73;;;1.40;;
50880;SDS011;36858;47.832;-3.800;2023-08-20T11:38:16;2.07;;;1.00;;
50880;SDS011;36858;47.832;-3.800;2023-08-20T11:40:43;3.73;;;1.40;;
50880;SDS011;36858;47.832;-3.800;2023-08-20T11:43:10;3.80;;;1.10;;
50880;SDS011;36858;47.832;-3.800;2023-08-20T11:45:45;3.50;;;1.10;;
50880;SDS011;36858;47.832;-3.800;2023-08-20T11:48:15;3.50;;;1.43;;
50880;SDS011;36858;47.832;-3.800;2023-08-20T11:50:43;3.40;;;1.30;;
50880;SDS011;36858;47.832;-3.800;2023-08-20T11:53:10;2.57;;;1.10;;
50880;SDS011;36858;47.832;-3.800;2023-08-20T11:55:38;5.47;;;1.30;;
50880;SDS011;36858;47.832;-3.800;2023-08-20T11:58:10;4.20;;;1.17;;
50880;SDS011;36858;47.832;-3.800;2023-08-20T12:00:38;4.03;;;1.80;;
50880;SDS011;36858;47.832;-3.800;2023-08-20T12:03:05;3.20;;;1.13;;
50880;SDS011;36858;47.832;-3.800;2023-08-20T12:05:32;5.60;;;1.50;;
50880;SDS011;36858;47.832;-3.800;2023-08-20T12:08:00;1.93;;;0.83;;
50880;SDS011;36858;47.832;-3.800;2023-08-20T12:10:29;3.97;;;1.50;;
50880;SDS011;36858;47.832;-3.800;2023-08-20T12:12:57;5.67;;;2.10;;
50880;SDS011;36858;47.832;-3.800;2023-08-20T12:15:24;9.00;;;2.23;;
50880;SDS011;36858;47.832;-3.800;2023-08-20T12:18:01;10.67;;;2.83;;
50880;SDS011;36858;47.832;-3.800;2023-08-20T12:20:33;8.37;;;2.77;;
50880;SDS011;36858;47.832;-3.800;2023-08-20T12:23:02;11.70;;;3.77;;
50880;SDS011;36858;47.832;-3.800;2023-08-20T12:25:31;11.80;;;4.03;;
50880;SDS011;36858;47.832;-3.800;2023-08-20T12:28:01;11.50;;;3.90;;
50880;SDS011;36858;47.832;-3.800;2023-08-20T12:30:30;5.90;;;2.80;;
50880;SDS011;36858;47.832;-3.800;2023-08-20T12:32:59;8.07;;;3.00;;
50880;SDS011;36858;47.832;-3.800;2023-08-20T12:35:26;10.83;;;2.73;;
50880;SDS011;36858;47.832;-3.800;2023-08-20T12:37:53;7.30;;;2.23;;
50880;SDS011;36858;47.832;-3.800;2023-08-20T12:40:20;8.40;;;2.47;;
50880;SDS011;36858;47.832;-3.800;2023-08-20T12:42:48;6.60;;;1.87;;
50880;SDS011;36858;47.832;-3.800;2023-08-20T12:45:15;7.03;;;1.70;;
50880;SDS011;36858;47.832;-3.800;2023-08-20T12:47:42;2.20;;;1.13;;
50880;SDS011;36858;47.832;-3.800;2023-08-20T12:50:09;3.07;;;1.00;;
50880;SDS011;36858;47.832;-3.800;2023-08-20T12:52:37;3.97;;;1.37;;
50880;SDS011;36858;47.832;-3.800;2023-08-20T12:55:04;4.77;;;1.53;;
50880;SDS011;36858;47.832;-3.800;2023-08-20T12:57:33;6.33;;;1.47;;
50880;SDS011;36858;47.832;-3.800;2023-08-20T13:00:03;2.60;;;1.40;;
50880;SDS011;36858;47.832;-3.800;2023-08-20T13:02:37;6.10;;;1.07;;
50880;SDS011;36858;47.832;-3.800;2023-08-20T13:05:05;2.93;;;0.93;;
50880;SDS011;36858;47.832;-3.800;2023-08-20T13:07:32;6.00;;;1.17;;
50880;SDS011;36858;47.832;-3.800;2023-08-20T13:10:00;2.97;;;1.30;;
50880;SDS011;36858;47.832;-3.800;2023-08-20T13:12:27;4.07;;;1.20;;
50880;SDS011;36858;47.832;-3.800;2023-08-20T13:14:55;8.03;;;1.93;;
50880;SDS011;36858;47.832;-3.800;2023-08-20T13:17:23;6.37;;;1.60;;
50880;SDS011;36858;47.832;-3.800;2023-08-20T13:19:50;6.57;;;2.00;;
50880;SDS011;36858;47.832;-3.800;2023-08-20T13:22:17;4.33;;;1.67;;
50880;SDS011;36858;47.832;-3.800;2023-08-20T13:24:44;3.37;;;1.33;;
50880;SDS011;36858;47.832;-3.800;2023-08-20T13:27:11;3.03;;;0.90;;
50880;SDS011;36858;47.832;-3.800;2023-08-20T13:29:38;2.97;;;1.10;;
50880;SDS011;36858;47.832;-3.800;2023-08-20T13:32:06;5.23;;;1.33;;
50880;SDS011;36858;47.832;-3.800;2023-08-20T13:34:33;5.17;;;1.40;;
50880;SDS011;36858;47.832;-3.800;2023-08-20T13:37:00;5.03;;;1.20;;
50880;SDS011;36858;47.832;-3.800;2023-08-20T13:39:27;4.80;;;1.67;;
50880;SDS011;36858;47.832;-3.800;2023-08-20T13:41:54;2.87;;;1.20;;
50880;SDS011;36858;47.832;-3.800;2023-08-20T13:44:21;8.13;;;2.80;;
50880;SDS011;36858;47.832;-3.800;2023-08-20T13:46:48;11.20;;;3.20;;
50880;SDS011;36858;47.832;-3.800;2023-08-20T13:49:15;10.90;;;3.27;;
50880;SDS011;36858;47.832;-3.800;2023-08-20T13:51:42;6.40;;;2.17;;
50880;SDS011;36858;47.832;-3.800;2023-08-20T13:54:09;6.47;;;1.90;;
50880;SDS011;36858;47.832;-3.800;2023-08-20T13:56:36;6.43;;;1.80;;
50880;SDS011;36858;47.832;-3.800;2023-08-20T13:59:03;2.10;;;1.20;;
50880;SDS011;36858;47.832;-3.800;2023-08-20T14:01:30;3.20;;;1.03;;
50880;SDS011;36858;47.832;-3.800;2023-08-20T14:03:57;6.43;;;1.57;;
50880;SDS011;36858;47.832;-3.800;2023-08-20T14:06:23;3.70;;;1.30;;
50880;SDS011;36858;47.832;-3.800;2023-08-20T14:08:50;5.00;;;1.13;;
50880;SDS011;36858;47.832;-3.800;2023-08-20T14:11:17;4.10;;;1.13;;
50880;SDS011;36858;47.832;-3.800;2023-08-20T14:13:44;2.50;;;1.17;;
50880;SDS011;36858;47.832;-3.800;2023-08-20T14:16:11;3.93;;;0.90;;
50880;SDS011;36858;47.832;-3.800;2023-08-20T14:18:38;2.07;;;0.97;;
50880;SDS011;36858;47.832;-3.800;2023-08-20T14:21:05;3.87;;;1.03;;
50880;SDS011;36858;47.832;-3.800;2023-08-20T14:23:32;2.70;;;0.90;;
50880;SDS011;36858;47.832;-3.800;2023-08-20T14:25:59;4.77;;;0.93;;
50880;SDS011;36858;47.832;-3.800;2023-08-20T14:28:26;4.23;;;0.93;;
50880;SDS011;36858;47.832;-3.800;2023-08-20T14:30:52;2.70;;;0.80;;
50880;SDS011;36858;47.832;-3.800;2023-08-20T14:33:22;2.10;;;0.80;;
50880;SDS011;36858;47.832;-3.800;2023-08-20T14:35:49;2.07;;;1.13;;
50880;SDS011;36858;47.832;-3.800;2023-08-20T14:38:16;2.27;;;0.73;;
50880;SDS011;36858;47.832;-3.800;2023-08-20T14:40:43;2.77;;;0.77;;
50880;SDS011;36858;47.832;-3.800;2023-08-20T14:43:10;5.03;;;1.00;;
50880;SDS011;36858;47.832;-3.800;2023-08-20T14:45:37;3.27;;;0.93;;
50880;SDS011;36858;47.832;-3.800;2023-08-20T14:48:04;5.33;;;1.00;;
50880;SDS011;36858;47.832;-3.800;2023-08-20T14:50:31;2.20;;;0.80;;